Terminal Aerodrome Forecast
Issued by NWS

Home | Current Version | Previous Version | Text Only | Print | Product List | Glossary On
Versions: 1 2 3 4 5 6 7 8 9 10 11 12 13 14
332
FTUS44 KLIX 271134
TAFMCB
TAF
KMCB 271134Z 2712/2812 15007KT P6SM VCSH SCT025 BKN035 OVC050
     FM271300 16006KT 5SM SHRA OVC015
      TEMPO 2715/2717 2SM TSRA OVC007CB
     FM271700 18009KT P6SM OVC020
      TEMPO 2717/2721 2SM TSRA OVC007CB
     FM272100 17007KT P6SM OVC050
     FM280300 15007KT P6SM BKN008=

USA.gov is the U.S. government's official web portal to all federal, state and local government web resources and services.